sensor_id;sensor_type;location;lat;lon;timestamp;pressure;altitude;pressure_sealevel;temperature;humidity
81162;BME280;70638;-33.792;151.032;2024-01-30T00:00:28;100802.40;;;23.33;100.00
81162;BME280;70638;-33.792;151.032;2024-01-30T00:02:58;100801.16;;;23.48;100.00
81162;BME280;70638;-33.792;151.032;2024-01-30T00:05:29;100800.23;;;23.30;100.00
81162;BME280;70638;-33.792;151.032;2024-01-30T00:08:00;100799.28;;;23.31;100.00
81162;BME280;70638;-33.792;151.032;2024-01-30T00:10:30;100799.25;;;23.55;100.00
81162;BME280;70638;-33.792;151.032;2024-01-30T00:13:00;100796.84;;;23.70;100.00
81162;BME280;70638;-33.792;151.032;2024-01-30T00:15:30;100797.84;;;23.96;100.00
81162;BME280;70638;-33.792;151.032;2024-01-30T00:18:01;100796.56;;;23.75;100.00
81162;BME280;70638;-33.792;151.032;2024-01-30T00:20:34;100794.65;;;23.85;100.00
81162;BME280;70638;-33.792;151.032;2024-01-30T00:23:02;100789.46;;;23.92;100.00
81162;BME280;70638;-33.792;151.032;2024-01-30T00:25:33;100792.67;;;23.91;100.00
81162;BME280;70638;-33.792;151.032;2024-01-30T00:28:03;100799.27;;;23.88;100.00
81162;BME280;70638;-33.792;151.032;2024-01-30T00:30:35;100800.42;;;23.93;100.00
81162;BME280;70638;-33.792;151.032;2024-01-30T00:33:08;100803.89;;;24.07;100.00
81162;BME280;70638;-33.792;151.032;2024-01-30T00:35:40;100801.98;;;23.83;100.00
81162;BME280;70638;-33.792;151.032;2024-01-30T00:38:05;100806.09;;;23.62;100.00
81162;BME280;70638;-33.792;151.032;2024-01-30T00:40:35;100806.76;;;23.62;100.00
81162;BME280;70638;-33.792;151.032;2024-01-30T00:43:05;100806.91;;;23.94;100.00
81162;BME280;70638;-33.792;151.032;2024-01-30T00:45:39;100804.20;;;24.25;100.00
81162;BME280;70638;-33.792;151.032;2024-01-30T00:48:07;100805.95;;;24.27;100.00
81162;BME280;70638;-33.792;151.032;2024-01-30T00:50:37;100806.98;;;24.45;100.00
81162;BME280;70638;-33.792;151.032;2024-01-30T00:55:39;100799.55;;;24.57;100.00
81162;BME280;70638;-33.792;151.032;2024-01-30T00:58:14;100801.92;;;24.44;100.00
81162;BME280;70638;-33.792;151.032;2024-01-30T01:00:39;100802.65;;;24.31;100.00
81162;BME280;70638;-33.792;151.032;2024-01-30T01:03:10;100791.61;;;24.38;100.00
81162;BME280;70638;-33.792;151.032;2024-01-30T01:05:41;100788.78;;;24.97;100.00
81162;BME280;70638;-33.792;151.032;2024-01-30T01:08:11;100783.80;;;25.45;99.38
81162;BME280;70638;-33.792;151.032;2024-01-30T01:10:42;100790.15;;;25.53;96.89
81162;BME280;70638;-33.792;151.032;2024-01-30T01:13:15;100787.48;;;25.16;96.54
81162;BME280;70638;-33.792;151.032;2024-01-30T01:15:43;100788.44;;;25.23;98.84
81162;BME280;70638;-33.792;151.032;2024-01-30T01:18:18;100776.98;;;25.29;95.04
81162;BME280;70638;-33.792;151.032;2024-01-30T01:20:46;100776.64;;;25.43;94.81
81162;BME280;70638;-33.792;151.032;2024-01-30T01:23:15;100773.18;;;25.32;94.76
81162;BME280;70638;-33.792;151.032;2024-01-30T01:25:47;100780.39;;;25.27;98.17
81162;BME280;70638;-33.792;151.032;2024-01-30T01:28:16;100774.48;;;25.08;93.11
81162;BME280;70638;-33.792;151.032;2024-01-30T01:30:46;100779.45;;;24.90;93.91
81162;BME280;70638;-33.792;151.032;2024-01-30T01:33:16;100775.56;;;25.32;94.28
81162;BME280;70638;-33.792;151.032;2024-01-30T01:35:47;100773.00;;;25.38;91.60
81162;BME280;70638;-33.792;151.032;2024-01-30T01:38:17;100772.30;;;25.34;92.84
81162;BME280;70638;-33.792;151.032;2024-01-30T01:40:48;100771.12;;;25.36;93.14
81162;BME280;70638;-33.792;151.032;2024-01-30T01:43:18;100769.77;;;25.33;93.20
81162;BME280;70638;-33.792;151.032;2024-01-30T01:45:48;100771.17;;;25.22;92.36
81162;BME280;70638;-33.792;151.032;2024-01-30T01:48:18;100770.59;;;25.26;94.41
81162;BME280;70638;-33.792;151.032;2024-01-30T01:50:48;100767.48;;;25.36;92.03
81162;BME280;70638;-33.792;151.032;2024-01-30T01:53:19;100762.60;;;25.38;91.75
81162;BME280;70638;-33.792;151.032;2024-01-30T01:55:50;100757.47;;;25.42;91.34
81162;BME280;70638;-33.792;151.032;2024-01-30T01:58:27;100763.03;;;25.26;91.48
81162;BME280;70638;-33.792;151.032;2024-01-30T02:00:52;100760.12;;;25.40;89.38
81162;BME280;70638;-33.792;151.032;2024-01-30T02:03:24;100755.89;;;25.46;89.41
81162;BME280;70638;-33.792;151.032;2024-01-30T02:05:52;100742.64;;;25.66;88.49
81162;BME280;70638;-33.792;151.032;2024-01-30T02:08:22;100742.38;;;25.53;88.19
81162;BME280;70638;-33.792;151.032;2024-01-30T02:10:54;100742.72;;;25.64;88.31
81162;BME280;70638;-33.792;151.032;2024-01-30T02:13:27;100730.78;;;25.63;86.83
81162;BME280;70638;-33.792;151.032;2024-01-30T02:15:55;100725.59;;;25.85;87.33
81162;BME280;70638;-33.792;151.032;2024-01-30T02:18:24;100726.16;;;26.08;84.95
81162;BME280;70638;-33.792;151.032;2024-01-30T02:20:57;100724.75;;;26.22;83.76
81162;BME280;70638;-33.792;151.032;2024-01-30T02:23:27;100727.34;;;26.18;85.55
81162;BME280;70638;-33.792;151.032;2024-01-30T02:25:56;100732.61;;;25.86;84.50
81162;BME280;70638;-33.792;151.032;2024-01-30T02:28:27;100723.70;;;26.03;83.95
81162;BME280;70638;-33.792;151.032;2024-01-30T02:30:57;100733.42;;;26.23;82.71
81162;BME280;70638;-33.792;151.032;2024-01-30T02:33:29;100729.83;;;26.11;83.15
81162;BME280;70638;-33.792;151.032;2024-01-30T02:35:58;100727.79;;;25.74;84.79
81162;BME280;70638;-33.792;151.032;2024-01-30T02:38:54;100721.55;;;25.82;85.50
81162;BME280;70638;-33.792;151.032;2024-01-30T02:41:01;100719.86;;;25.93;83.25
81162;BME280;70638;-33.792;151.032;2024-01-30T02:43:29;100717.85;;;26.42;85.31
81162;BME280;70638;-33.792;151.032;2024-01-30T02:48:31;100716.47;;;26.22;81.82
81162;BME280;70638;-33.792;151.032;2024-01-30T02:51:09;100709.36;;;26.49;82.04
81162;BME280;70638;-33.792;151.032;2024-01-30T02:53:31;100705.15;;;27.00;79.79
81162;BME280;70638;-33.792;151.032;2024-01-30T02:56:02;100704.27;;;27.18;77.98
81162;BME280;70638;-33.792;151.032;2024-01-30T02:58:34;100697.14;;;27.69;76.16
81162;BME280;70638;-33.792;151.032;2024-01-30T03:01:03;100700.94;;;27.49;74.60
81162;BME280;70638;-33.792;151.032;2024-01-30T03:03:38;100695.72;;;27.87;78.36
81162;BME280;70638;-33.792;151.032;2024-01-30T03:06:08;100693.31;;;27.27;75.78
81162;BME280;70638;-33.792;151.032;2024-01-30T03:08:37;100701.75;;;26.86;77.54
81162;BME280;70638;-33.792;151.032;2024-01-30T03:11:04;100703.47;;;27.07;79.03
81162;BME280;70638;-33.792;151.032;2024-01-30T03:13:34;100703.64;;;26.71;77.88
81162;BME280;70638;-33.792;151.032;2024-01-30T03:16:06;100703.70;;;26.46;81.49
81162;BME280;70638;-33.792;151.032;2024-01-30T03:18:35;100701.13;;;26.22;79.83
81162;BME280;70638;-33.792;151.032;2024-01-30T03:21:06;100699.80;;;25.95;81.42
81162;BME280;70638;-33.792;151.032;2024-01-30T03:26:29;100696.09;;;26.38;80.76
81162;BME280;70638;-33.792;151.032;2024-01-30T03:31:13;100696.88;;;26.57;80.78
81162;BME280;70638;-33.792;151.032;2024-01-30T03:33:47;100699.24;;;26.45;80.89
81162;BME280;70638;-33.792;151.032;2024-01-30T03:41:28;100692.07;;;26.97;78.03
81162;BME280;70638;-33.792;151.032;2024-01-30T03:46:12;100683.64;;;26.60;80.23
81162;BME280;70638;-33.792;151.032;2024-01-30T03:53:47;100666.09;;;27.46;74.21
81162;BME280;70638;-33.792;151.032;2024-01-30T03:56:26;100666.47;;;27.08;75.73
81162;BME280;70638;-33.792;151.032;2024-01-30T03:58:51;100670.31;;;26.83;76.75
81162;BME280;70638;-33.792;151.032;2024-01-30T04:01:22;100670.92;;;26.91;78.55
81162;BME280;70638;-33.792;151.032;2024-01-30T04:03:50;100670.78;;;26.53;78.23
81162;BME280;70638;-33.792;151.032;2024-01-30T04:06:23;100663.98;;;26.52;79.39
81162;BME280;70638;-33.792;151.032;2024-01-30T04:08:44;100661.27;;;26.48;79.90
81162;BME280;70638;-33.792;151.032;2024-01-30T04:11:15;100657.48;;;26.37;81.27
81162;BME280;70638;-33.792;151.032;2024-01-30T04:13:51;100655.33;;;26.35;81.10
81162;BME280;70638;-33.792;151.032;2024-01-30T04:16:26;100655.83;;;26.60;81.32
81162;BME280;70638;-33.792;151.032;2024-01-30T04:18:47;100657.12;;;26.79;81.42
81162;BME280;70638;-33.792;151.032;2024-01-30T04:21:44;100653.93;;;26.66;79.44
81162;BME280;70638;-33.792;151.032;2024-01-30T04:23:56;100653.22;;;26.49;79.83
81162;BME280;70638;-33.792;151.032;2024-01-30T04:26:31;100651.16;;;26.36;79.99
81162;BME280;70638;-33.792;151.032;2024-01-30T04:28:53;100645.78;;;26.39;80.68
81162;BME280;70638;-33.792;151.032;2024-01-30T04:31:20;100643.58;;;26.32;80.67
81162;BME280;70638;-33.792;151.032;2024-01-30T04:33:52;100636.94;;;26.56;81.05
81162;BME280;70638;-33.792;151.032;2024-01-30T04:36:23;100631.25;;;26.67;81.64
81162;BME280;70638;-33.792;151.032;2024-01-30T04:39:03;100635.75;;;26.57;81.45
81162;BME280;70638;-33.792;151.032;2024-01-30T04:41:22;100627.81;;;26.71;81.54
81162;BME280;70638;-33.792;151.032;2024-01-30T04:43:52;100631.28;;;26.25;80.81
81162;BME280;70638;-33.792;151.032;2024-01-30T04:46:22;100629.13;;;26.21;82.57
81162;BME280;70638;-33.792;151.032;2024-01-30T04:48:58;100611.89;;;26.37;81.04
81162;BME280;70638;-33.792;151.032;2024-01-30T04:51:36;100621.23;;;26.54;80.70
81162;BME280;70638;-33.792;151.032;2024-01-30T04:54:11;100611.61;;;26.79;80.04
81162;BME280;70638;-33.792;151.032;2024-01-30T04:56:42;100604.05;;;27.07;80.26
81162;BME280;70638;-33.792;151.032;2024-01-30T04:58:56;100602.33;;;27.45;78.31
81162;BME280;70638;-33.792;151.032;2024-01-30T05:01:32;100595.73;;;27.00;78.38
81162;BME280;70638;-33.792;151.032;2024-01-30T05:03:56;100599.95;;;27.08;79.48
81162;BME280;70638;-33.792;151.032;2024-01-30T05:06:28;100592.87;;;27.08;78.87
81162;BME280;70638;-33.792;151.032;2024-01-30T05:08:57;100591.03;;;26.89;81.39
81162;BME280;70638;-33.792;151.032;2024-01-30T05:11:30;100596.52;;;26.71;79.67
81162;BME280;70638;-33.792;151.032;2024-01-30T05:14:00;100589.83;;;26.56;81.55
81162;BME280;70638;-33.792;151.032;2024-01-30T05:16:30;100596.32;;;26.38;81.31
81162;BME280;70638;-33.792;151.032;2024-01-30T05:18:59;100597.52;;;26.23;81.42
81162;BME280;70638;-33.792;151.032;2024-01-30T05:21:29;100587.47;;;26.42;81.20
81162;BME280;70638;-33.792;151.032;2024-01-30T05:23:59;100581.47;;;26.52;80.73
81162;BME280;70638;-33.792;151.032;2024-01-30T05:26:32;100585.52;;;26.72;82.19
81162;BME280;70638;-33.792;151.032;2024-01-30T05:29:00;100579.11;;;26.98;80.43
81162;BME280;70638;-33.792;151.032;2024-01-30T05:31:48;100578.50;;;26.78;80.04
81162;BME280;70638;-33.792;151.032;2024-01-30T05:34:07;100570.14;;;26.88;82.25
81162;BME280;70638;-33.792;151.032;2024-01-30T05:36:32;100566.11;;;26.91;82.92
81162;BME280;70638;-33.792;151.032;2024-01-30T05:39:27;100572.06;;;26.43;81.12
81162;BME280;70638;-33.792;151.032;2024-01-30T05:54:21;100560.94;;;25.70;87.86
81162;BME280;70638;-33.792;151.032;2024-01-30T05:56:41;100559.16;;;25.78;88.33
81162;BME280;70638;-33.792;151.032;2024-01-30T05:59:10;100569.17;;;25.54;86.90
81162;BME280;70638;-33.792;151.032;2024-01-30T06:01:50;100564.05;;;25.66;86.01
81162;BME280;70638;-33.792;151.032;2024-01-30T06:04:12;100562.38;;;25.87;85.37
81162;BME280;70638;-33.792;151.032;2024-01-30T06:06:36;100561.80;;;25.77;84.96
81162;BME280;70638;-33.792;151.032;2024-01-30T06:09:07;100568.52;;;25.75;85.64
81162;BME280;70638;-33.792;151.032;2024-01-30T06:11:38;100565.16;;;25.77;85.19
81162;BME280;70638;-33.792;151.032;2024-01-30T06:14:10;100565.30;;;25.89;87.55
81162;BME280;70638;-33.792;151.032;2024-01-30T06:16:44;100564.70;;;25.93;84.33
81162;BME280;70638;-33.792;151.032;2024-01-30T06:19:16;100565.40;;;25.69;85.21
81162;BME280;70638;-33.792;151.032;2024-01-30T06:21:42;100574.23;;;25.68;86.60
81162;BME280;70638;-33.792;151.032;2024-01-30T06:24:10;100580.03;;;25.20;87.22
81162;BME280;70638;-33.792;151.032;2024-01-30T06:26:49;100580.70;;;25.19;89.65
81162;BME280;70638;-33.792;151.032;2024-01-30T06:32:35;100590.28;;;25.17;89.92
81162;BME280;70638;-33.792;151.032;2024-01-30T06:34:37;100593.39;;;24.94;89.61
81162;BME280;70638;-33.792;151.032;2024-01-30T06:36:53;100595.38;;;24.79;91.27
81162;BME280;70638;-33.792;151.032;2024-01-30T06:39:20;100596.31;;;24.72;91.40
81162;BME280;70638;-33.792;151.032;2024-01-30T06:41:59;100589.83;;;24.80;91.22
81162;BME280;70638;-33.792;151.032;2024-01-30T06:44:18;100586.17;;;24.89;91.88
81162;BME280;70638;-33.792;151.032;2024-01-30T06:46:44;100585.97;;;25.01;92.15
81162;BME280;70638;-33.792;151.032;2024-01-30T06:49:15;100587.61;;;24.98;91.79
81162;BME280;70638;-33.792;151.032;2024-01-30T06:51:53;100586.60;;;24.86;91.22
81162;BME280;70638;-33.792;151.032;2024-01-30T06:54:16;100581.95;;;24.91;91.24
81162;BME280;70638;-33.792;151.032;2024-01-30T06:56:49;100582.65;;;24.98;90.30
81162;BME280;70638;-33.792;151.032;2024-01-30T06:59:21;100576.91;;;25.00;89.89
81162;BME280;70638;-33.792;151.032;2024-01-30T07:01:55;100580.79;;;24.78;91.00
81162;BME280;70638;-33.792;151.032;2024-01-30T07:04:19;100574.83;;;24.76;91.61
81162;BME280;70638;-33.792;151.032;2024-01-30T07:06:53;100581.60;;;24.45;92.65
81162;BME280;70638;-33.792;151.032;2024-01-30T07:09:25;100589.02;;;24.43;93.87
81162;BME280;70638;-33.792;151.032;2024-01-30T07:11:51;100586.22;;;24.40;93.71
81162;BME280;70638;-33.792;151.032;2024-01-30T07:14:21;100588.76;;;24.47;94.97
81162;BME280;70638;-33.792;151.032;2024-01-30T07:19:51;100584.23;;;24.41;94.62
81162;BME280;70638;-33.792;151.032;2024-01-30T07:32:12;100585.95;;;24.30;93.95
81162;BME280;70638;-33.792;151.032;2024-01-30T07:37:34;100579.64;;;24.16;95.35
81162;BME280;70638;-33.792;151.032;2024-01-30T07:39:42;100579.75;;;24.10;96.31
81162;BME280;70638;-33.792;151.032;2024-01-30T07:47:14;100598.17;;;23.96;97.48
81162;BME280;70638;-33.792;151.032;2024-01-30T08:07:10;100607.32;;;23.98;99.74
81162;BME280;70638;-33.792;151.032;2024-01-30T08:14:54;100604.67;;;23.58;100.00
81162;BME280;70638;-33.792;151.032;2024-01-30T08:27:10;100612.75;;;23.46;100.00
81162;BME280;70638;-33.792;151.032;2024-01-30T08:32:22;100619.17;;;23.32;100.00
81162;BME280;70638;-33.792;151.032;2024-01-30T08:35:21;100623.39;;;23.28;100.00
81162;BME280;70638;-33.792;151.032;2024-01-30T08:37:12;100633.23;;;23.21;100.00
81162;BME280;70638;-33.792;151.032;2024-01-30T08:44:55;100618.78;;;23.22;100.00
81162;BME280;70638;-33.792;151.032;2024-01-30T08:47:39;100615.78;;;23.16;100.00
81162;BME280;70638;-33.792;151.032;2024-01-30T08:49:35;100619.79;;;23.08;100.00
81162;BME280;70638;-33.792;151.032;2024-01-30T08:52:04;100620.64;;;23.05;100.00
81162;BME280;70638;-33.792;151.032;2024-01-30T09:20:28;100629.29;;;22.82;100.00
81162;BME280;70638;-33.792;151.032;2024-01-30T09:32:16;100625.62;;;22.65;100.00
81162;BME280;70638;-33.792;151.032;2024-01-30T09:34:51;100622.30;;;22.62;100.00
81162;BME280;70638;-33.792;151.032;2024-01-30T09:37:29;100621.13;;;22.57;100.00
81162;BME280;70638;-33.792;151.032;2024-01-30T09:42:36;100629.71;;;22.54;100.00
81162;BME280;70638;-33.792;151.032;2024-01-30T09:49:56;100645.05;;;22.53;100.00
81162;BME280;70638;-33.792;151.032;2024-01-30T09:52:15;100648.60;;;22.55;100.00
81162;BME280;70638;-33.792;151.032;2024-01-30T09:57:27;100645.88;;;22.64;100.00
81162;BME280;70638;-33.792;151.032;2024-01-30T09:59:43;100643.33;;;22.66;100.00
81162;BME280;70638;-33.792;151.032;2024-01-30T10:02:32;100642.28;;;22.68;100.00
81162;BME280;70638;-33.792;151.032;2024-01-30T10:07:10;100625.31;;;22.71;100.00
81162;BME280;70638;-33.792;151.032;2024-01-30T10:09:44;100624.60;;;22.68;100.00
81162;BME280;70638;-33.792;151.032;2024-01-30T10:12:10;100631.30;;;22.68;100.00
81162;BME280;70638;-33.792;151.032;2024-01-30T10:14:57;100636.23;;;22.70;100.00
81162;BME280;70638;-33.792;151.032;2024-01-30T10:17:11;100637.03;;;22.74;100.00
81162;BME280;70638;-33.792;151.032;2024-01-30T10:19:47;100638.59;;;22.74;100.00
81162;BME280;70638;-33.792;151.032;2024-01-30T10:22:11;100644.77;;;22.74;100.00
81162;BME280;70638;-33.792;151.032;2024-01-30T10:24:41;100644.66;;;22.75;100.00
81162;BME280;70638;-33.792;151.032;2024-01-30T10:27:11;100647.02;;;22.79;100.00
81162;BME280;70638;-33.792;151.032;2024-01-30T10:29:43;100647.29;;;22.73;100.00
81162;BME280;70638;-33.792;151.032;2024-01-30T10:32:19;100657.08;;;22.75;100.00
81162;BME280;70638;-33.792;151.032;2024-01-30T10:39:53;100656.31;;;22.72;100.00
81162;BME280;70638;-33.792;151.032;2024-01-30T10:42:31;100661.61;;;22.73;100.00
81162;BME280;70638;-33.792;151.032;2024-01-30T10:47:20;100670.86;;;22.76;100.00
81162;BME280;70638;-33.792;151.032;2024-01-30T10:49:46;100667.41;;;22.74;100.00
81162;BME280;70638;-33.792;151.032;2024-01-30T10:52:18;100669.16;;;22.73;100.00
81162;BME280;70638;-33.792;151.032;2024-01-30T10:54:47;100676.05;;;22.75;100.00
81162;BME280;70638;-33.792;151.032;2024-01-30T10:57:18;100683.09;;;22.77;100.00
81162;BME280;70638;-33.792;151.032;2024-01-30T10:59:48;100681.41;;;22.76;100.00
81162;BME280;70638;-33.792;151.032;2024-01-30T11:02:20;100680.10;;;22.76;100.00
81162;BME280;70638;-33.792;151.032;2024-01-30T11:04:57;100681.52;;;22.74;100.00
81162;BME280;70638;-33.792;151.032;2024-01-30T11:07:23;100685.16;;;22.73;100.00
81162;BME280;70638;-33.792;151.032;2024-01-30T11:09:53;100687.46;;;22.74;100.00
81162;BME280;70638;-33.792;151.032;2024-01-30T11:12:26;100693.91;;;22.70;100.00
81162;BME280;70638;-33.792;151.032;2024-01-30T11:15:07;100693.92;;;22.70;100.00
81162;BME280;70638;-33.792;151.032;2024-01-30T11:17:21;100688.42;;;22.63;100.00
81162;BME280;70638;-33.792;151.032;2024-01-30T11:19:53;100689.23;;;22.58;100.00
81162;BME280;70638;-33.792;151.032;2024-01-30T11:22:22;100688.72;;;22.54;100.00
81162;BME280;70638;-33.792;151.032;2024-01-30T11:24:53;100686.08;;;22.54;100.00
81162;BME280;70638;-33.792;151.032;2024-01-30T11:27:31;100687.08;;;22.49;100.00
81162;BME280;70638;-33.792;151.032;2024-01-30T11:30:05;100683.22;;;22.44;100.00
81162;BME280;70638;-33.792;151.032;2024-01-30T11:32:25;100685.51;;;22.45;100.00
81162;BME280;70638;-33.792;151.032;2024-01-30T11:34:56;100691.38;;;22.48;100.00
81162;BME280;70638;-33.792;151.032;2024-01-30T11:37:31;100688.20;;;22.52;100.00
81162;BME280;70638;-33.792;151.032;2024-01-30T11:39:59;100689.53;;;22.53;100.00
81162;BME280;70638;-33.792;151.032;2024-01-30T11:42:30;100685.61;;;22.49;100.00
81162;BME280;70638;-33.792;151.032;2024-01-30T11:44:59;100681.72;;;22.40;100.00
81162;BME280;70638;-33.792;151.032;2024-01-30T11:47:35;100684.44;;;22.30;100.00
81162;BME280;70638;-33.792;151.032;2024-01-30T11:49:58;100683.53;;;22.22;100.00
81162;BME280;70638;-33.792;151.032;2024-01-30T11:52:29;100685.12;;;22.18;100.00
81162;BME280;70638;-33.792;151.032;2024-01-30T11:55:00;100684.50;;;22.15;100.00
81162;BME280;70638;-33.792;151.032;2024-01-30T11:57:36;100682.25;;;22.12;100.00
81162;BME280;70638;-33.792;151.032;2024-01-30T11:59:59;100677.23;;;22.15;100.00
81162;BME280;70638;-33.792;151.032;2024-01-30T12:02:29;100681.83;;;22.15;100.00
81162;BME280;70638;-33.792;151.032;2024-01-30T12:05:03;100681.16;;;22.20;100.00
81162;BME280;70638;-33.792;151.032;2024-01-30T12:07:31;100681.86;;;22.23;100.00
81162;BME280;70638;-33.792;151.032;2024-01-30T12:10:01;100683.73;;;22.27;100.00
81162;BME280;70638;-33.792;151.032;2024-01-30T12:12:32;100683.31;;;22.27;100.00
81162;BME280;70638;-33.792;151.032;2024-01-30T12:15:08;100685.09;;;22.28;100.00
81162;BME280;70638;-33.792;151.032;2024-01-30T12:17:33;100681.12;;;22.29;100.00
81162;BME280;70638;-33.792;151.032;2024-01-30T12:20:04;100679.62;;;22.34;100.00
81162;BME280;70638;-33.792;151.032;2024-01-30T12:22:36;100673.64;;;22.30;100.00
81162;BME280;70638;-33.792;151.032;2024-01-30T12:25:04;100670.91;;;22.27;100.00
81162;BME280;70638;-33.792;151.032;2024-01-30T12:27:34;100669.92;;;22.31;100.00
81162;BME280;70638;-33.792;151.032;2024-01-30T12:30:12;100671.55;;;22.32;100.00
81162;BME280;70638;-33.792;151.032;2024-01-30T12:32:39;100676.20;;;22.34;100.00
81162;BME280;70638;-33.792;151.032;2024-01-30T12:35:10;100673.81;;;22.38;100.00
81162;BME280;70638;-33.792;151.032;2024-01-30T12:37:44;100672.66;;;22.31;100.00
81162;BME280;70638;-33.792;151.032;2024-01-30T12:40:08;100666.61;;;22.27;100.00
81162;BME280;70638;-33.792;151.032;2024-01-30T12:42:37;100666.14;;;22.25;100.00
81162;BME280;70638;-33.792;151.032;2024-01-30T12:45:13;100663.41;;;22.28;100.00
81162;BME280;70638;-33.792;151.032;2024-01-30T12:47:42;100663.12;;;22.29;100.00
81162;BME280;70638;-33.792;151.032;2024-01-30T12:50:09;100661.83;;;22.30;100.00
81162;BME280;70638;-33.792;151.032;2024-01-30T12:52:39;100665.19;;;22.29;100.00
81162;BME280;70638;-33.792;151.032;2024-01-30T12:55:10;100663.66;;;22.28;100.00
81162;BME280;70638;-33.792;151.032;2024-01-30T12:57:42;100664.86;;;22.28;100.00
81162;BME280;70638;-33.792;151.032;2024-01-30T13:00:11;100663.08;;;22.28;100.00
81162;BME280;70638;-33.792;151.032;2024-01-30T13:02:40;100662.76;;;22.30;100.00
81162;BME280;70638;-33.792;151.032;2024-01-30T13:05:10;100663.31;;;22.29;100.00
81162;BME280;70638;-33.792;151.032;2024-01-30T13:07:42;100659.20;;;22.25;100.00
81162;BME280;70638;-33.792;151.032;2024-01-30T13:10:11;100657.89;;;22.27;100.00
81162;BME280;70638;-33.792;151.032;2024-01-30T13:12:42;100654.46;;;22.27;100.00
81162;BME280;70638;-33.792;151.032;2024-01-30T13:15:14;100656.50;;;22.31;100.00
81162;BME280;70638;-33.792;151.032;2024-01-30T13:17:44;100657.62;;;22.30;100.00
81162;BME280;70638;-33.792;151.032;2024-01-30T13:20:14;100657.98;;;22.30;100.00
81162;BME280;70638;-33.792;151.032;2024-01-30T13:22:44;100655.89;;;22.31;100.00
81162;BME280;70638;-33.792;151.032;2024-01-30T13:25:14;100657.48;;;22.33;100.00
81162;BME280;70638;-33.792;151.032;2024-01-30T13:27:45;100652.76;;;22.33;100.00
81162;BME280;70638;-33.792;151.032;2024-01-30T13:30:15;100648.98;;;22.33;100.00
81162;BME280;70638;-33.792;151.032;2024-01-30T13:32:47;100640.66;;;22.34;100.00
81162;BME280;70638;-33.792;151.032;2024-01-30T13:35:21;100640.23;;;22.33;100.00
81162;BME280;70638;-33.792;151.032;2024-01-30T13:37:47;100634.77;;;22.33;100.00
81162;BME280;70638;-33.792;151.032;2024-01-30T13:40:18;100631.33;;;22.33;100.00
81162;BME280;70638;-33.792;151.032;2024-01-30T13:42:47;100623.08;;;22.34;100.00
81162;BME280;70638;-33.792;151.032;2024-01-30T13:45:18;100627.97;;;22.34;100.00
81162;BME280;70638;-33.792;151.032;2024-01-30T13:47:48;100623.67;;;22.35;100.00
81162;BME280;70638;-33.792;151.032;2024-01-30T13:50:19;100624.05;;;22.27;100.00
81162;BME280;70638;-33.792;151.032;2024-01-30T13:52:48;100617.84;;;22.16;100.00
81162;BME280;70638;-33.792;151.032;2024-01-30T13:55:19;100618.55;;;22.09;100.00
81162;BME280;70638;-33.792;151.032;2024-01-30T13:57:49;100618.78;;;22.02;100.00
81162;BME280;70638;-33.792;151.032;2024-01-30T14:00:20;100615.44;;;21.92;100.00
81162;BME280;70638;-33.792;151.032;2024-01-30T14:02:55;100620.02;;;21.90;100.00
81162;BME280;70638;-33.792;151.032;2024-01-30T14:05:23;100623.98;;;21.89;100.00
81162;BME280;70638;-33.792;151.032;2024-01-30T14:07:52;100623.56;;;21.89;100.00
81162;BME280;70638;-33.792;151.032;2024-01-30T14:10:22;100623.05;;;21.88;100.00
81162;BME280;70638;-33.792;151.032;2024-01-30T14:12:52;100618.30;;;21.86;100.00
81162;BME280;70638;-33.792;151.032;2024-01-30T14:15:23;100618.77;;;21.82;100.00
81162;BME280;70638;-33.792;151.032;2024-01-30T14:17:53;100616.22;;;21.73;100.00
81162;BME280;70638;-33.792;151.032;2024-01-30T14:20:23;100610.95;;;21.68;100.00
81162;BME280;70638;-33.792;151.032;2024-01-30T14:22:55;100614.03;;;21.67;100.00
81162;BME280;70638;-33.792;151.032;2024-01-30T14:25:25;100613.37;;;21.66;100.00
81162;BME280;70638;-33.792;151.032;2024-01-30T14:27:55;100607.39;;;21.65;100.00
81162;BME280;70638;-33.792;151.032;2024-01-30T14:30:25;100602.11;;;21.61;100.00
81162;BME280;70638;-33.792;151.032;2024-01-30T14:32:55;100599.74;;;21.56;100.00
81162;BME280;70638;-33.792;151.032;2024-01-30T14:35:25;100593.75;;;21.49;100.00
81162;BME280;70638;-33.792;151.032;2024-01-30T14:37:56;100586.33;;;21.44;100.00
81162;BME280;70638;-33.792;151.032;2024-01-30T14:40:26;100575.38;;;21.40;100.00
81162;BME280;70638;-33.792;151.032;2024-01-30T14:42:57;100572.55;;;21.34;100.00
81162;BME280;70638;-33.792;151.032;2024-01-30T14:45:26;100571.55;;;21.33;100.00
81162;BME280;70638;-33.792;151.032;2024-01-30T14:47:59;100567.28;;;21.37;100.00
81162;BME280;70638;-33.792;151.032;2024-01-30T14:50:31;100570.78;;;21.33;100.00
81162;BME280;70638;-33.792;151.032;2024-01-30T14:52:57;100565.13;;;21.34;100.00
81162;BME280;70638;-33.792;151.032;2024-01-30T14:55:27;100561.27;;;21.30;100.00
81162;BME280;70638;-33.792;151.032;2024-01-30T14:57:58;100555.53;;;21.26;100.00
81162;BME280;70638;-33.792;151.032;2024-01-30T15:00:28;100551.36;;;21.26;100.00
81162;BME280;70638;-33.792;151.032;2024-01-30T15:02:58;100558.62;;;21.26;100.00